sensor_id;sensor_type;location;lat;lon;timestamp;temperature;humidity
39099;DHT22;24844;52.380;7.018;2023-05-09T00:00:43;15.90;99.90
39099;DHT22;24844;52.380;7.018;2023-05-09T00:03:08;15.80;99.90
39099;DHT22;24844;52.380;7.018;2023-05-09T00:05:34;15.70;99.90
39099;DHT22;24844;52.380;7.018;2023-05-09T00:08:00;15.70;99.90
39099;DHT22;24844;52.380;7.018;2023-05-09T00:10:26;15.70;99.90
39099;DHT22;24844;52.380;7.018;2023-05-09T00:12:52;15.70;99.90
39099;DHT22;24844;52.380;7.018;2023-05-09T00:15:17;15.70;99.90
39099;DHT22;24844;52.380;7.018;2023-05-09T00:17:44;15.60;99.90
39099;DHT22;24844;52.380;7.018;2023-05-09T00:20:10;15.50;99.90
39099;DHT22;24844;52.380;7.018;2023-05-09T00:22:38;15.50;99.90
39099;DHT22;24844;52.380;7.018;2023-05-09T00:25:06;15.50;99.90
39099;DHT22;24844;52.380;7.018;2023-05-09T00:27:31;15.40;99.90
39099;DHT22;24844;52.380;7.018;2023-05-09T00:29:57;15.40;99.90
39099;DHT22;24844;52.380;7.018;2023-05-09T00:32:23;15.40;99.90
39099;DHT22;24844;52.380;7.018;2023-05-09T00:34:50;15.40;99.90
39099;DHT22;24844;52.380;7.018;2023-05-09T00:37:15;15.40;99.90
39099;DHT22;24844;52.380;7.018;2023-05-09T00:39:46;15.40;99.90
39099;DHT22;24844;52.380;7.018;2023-05-09T00:42:12;15.40;99.90
39099;DHT22;24844;52.380;7.018;2023-05-09T00:44:38;15.30;99.90
39099;DHT22;24844;52.380;7.018;2023-05-09T00:47:03;15.20;99.90
39099;DHT22;24844;52.380;7.018;2023-05-09T00:49:29;15.10;99.90
39099;DHT22;24844;52.380;7.018;2023-05-09T00:51:56;15.20;99.90
39099;DHT22;24844;52.380;7.018;2023-05-09T00:54:21;15.20;99.90
39099;DHT22;24844;52.380;7.018;2023-05-09T00:56:47;15.20;99.90
39099;DHT22;24844;52.380;7.018;2023-05-09T00:59:13;15.30;99.90
39099;DHT22;24844;52.380;7.018;2023-05-09T01:01:38;15.40;99.90
39099;DHT22;24844;52.380;7.018;2023-05-09T01:04:04;15.30;99.90
39099;DHT22;24844;52.380;7.018;2023-05-09T01:06:40;15.30;99.90
39099;DHT22;24844;52.380;7.018;2023-05-09T01:09:23;15.40;99.90
39099;DHT22;24844;52.380;7.018;2023-05-09T01:15:05;15.70;99.90
39099;DHT22;24844;52.380;7.018;2023-05-09T01:17:45;15.90;99.90
39099;DHT22;24844;52.380;7.018;2023-05-09T01:28:16;15.60;99.90
39099;DHT22;24844;52.380;7.018;2023-05-09T01:30:45;15.40;99.90
39099;DHT22;24844;52.380;7.018;2023-05-09T01:33:16;15.20;99.90
39099;DHT22;24844;52.380;7.018;2023-05-09T01:35:45;15.30;99.90
39099;DHT22;24844;52.380;7.018;2023-05-09T01:38:16;15.40;99.90
39099;DHT22;24844;52.380;7.018;2023-05-09T01:40:44;15.50;99.90
39099;DHT22;24844;52.380;7.018;2023-05-09T01:43:13;15.40;99.90
39099;DHT22;24844;52.380;7.018;2023-05-09T01:45:41;15.40;99.90
39099;DHT22;24844;52.380;7.018;2023-05-09T01:48:07;15.40;99.90
39099;DHT22;24844;52.380;7.018;2023-05-09T01:50:35;15.50;99.90
39099;DHT22;24844;52.380;7.018;2023-05-09T01:53:02;15.40;99.90
39099;DHT22;24844;52.380;7.018;2023-05-09T01:55:33;15.40;99.90
39099;DHT22;24844;52.380;7.018;2023-05-09T01:58:00;15.20;99.90
39099;DHT22;24844;52.380;7.018;2023-05-09T02:00:27;15.20;99.90
39099;DHT22;24844;52.380;7.018;2023-05-09T02:02:54;15.20;99.90
39099;DHT22;24844;52.380;7.018;2023-05-09T02:05:25;15.20;99.90
39099;DHT22;24844;52.380;7.018;2023-05-09T02:07:52;15.10;99.90
39099;DHT22;24844;52.380;7.018;2023-05-09T02:10:19;15.20;99.90
39099;DHT22;24844;52.380;7.018;2023-05-09T02:12:45;15.10;99.90
39099;DHT22;24844;52.380;7.018;2023-05-09T02:15:11;15.00;99.90
39099;DHT22;24844;52.380;7.018;2023-05-09T02:17:36;15.10;99.90
39099;DHT22;24844;52.380;7.018;2023-05-09T02:20:02;15.00;99.90
39099;DHT22;24844;52.380;7.018;2023-05-09T02:22:29;15.00;99.90
39099;DHT22;24844;52.380;7.018;2023-05-09T02:24:55;15.20;99.90
39099;DHT22;24844;52.380;7.018;2023-05-09T02:27:21;15.20;99.90
39099;DHT22;24844;52.380;7.018;2023-05-09T02:29:50;15.20;99.90
39099;DHT22;24844;52.380;7.018;2023-05-09T02:32:24;15.00;99.90
39099;DHT22;24844;52.380;7.018;2023-05-09T02:34:52;14.90;99.90
39099;DHT22;24844;52.380;7.018;2023-05-09T02:37:19;14.90;99.90
39099;DHT22;24844;52.380;7.018;2023-05-09T02:39:45;14.90;99.90
39099;DHT22;24844;52.380;7.018;2023-05-09T02:42:12;14.90;99.90
39099;DHT22;24844;52.380;7.018;2023-05-09T02:44:39;15.00;99.90
39099;DHT22;24844;52.380;7.018;2023-05-09T02:47:05;15.00;99.90
39099;DHT22;24844;52.380;7.018;2023-05-09T02:49:32;15.10;99.90
39099;DHT22;24844;52.380;7.018;2023-05-09T02:51:58;15.30;99.90
39099;DHT22;24844;52.380;7.018;2023-05-09T02:54:23;15.40;99.90
39099;DHT22;24844;52.380;7.018;2023-05-09T02:56:49;15.60;99.90
39099;DHT22;24844;52.380;7.018;2023-05-09T02:59:16;15.60;99.90
39099;DHT22;24844;52.380;7.018;2023-05-09T03:01:42;15.70;99.90
39099;DHT22;24844;52.380;7.018;2023-05-09T03:04:07;15.50;99.90
39099;DHT22;24844;52.380;7.018;2023-05-09T03:06:33;15.30;99.90
39099;DHT22;24844;52.380;7.018;2023-05-09T03:08:58;15.30;99.90
39099;DHT22;24844;52.380;7.018;2023-05-09T03:11:24;15.30;99.90
39099;DHT22;24844;52.380;7.018;2023-05-09T03:13:50;15.20;99.90
39099;DHT22;24844;52.380;7.018;2023-05-09T03:16:16;15.10;99.90
39099;DHT22;24844;52.380;7.018;2023-05-09T03:18:42;15.20;99.90
39099;DHT22;24844;52.380;7.018;2023-05-09T03:21:08;15.20;99.90
39099;DHT22;24844;52.380;7.018;2023-05-09T03:23:33;15.10;99.90
39099;DHT22;24844;52.380;7.018;2023-05-09T03:25:59;15.00;99.90
39099;DHT22;24844;52.380;7.018;2023-05-09T03:28:26;14.90;99.90
39099;DHT22;24844;52.380;7.018;2023-05-09T03:30:52;15.00;99.90
39099;DHT22;24844;52.380;7.018;2023-05-09T03:33:17;15.00;99.90
39099;DHT22;24844;52.380;7.018;2023-05-09T03:35:43;14.90;99.90
39099;DHT22;24844;52.380;7.018;2023-05-09T03:38:08;15.00;99.90
39099;DHT22;24844;52.380;7.018;2023-05-09T03:40:34;14.90;99.90
39099;DHT22;24844;52.380;7.018;2023-05-09T03:43:00;15.00;99.90
39099;DHT22;24844;52.380;7.018;2023-05-09T03:45:25;15.10;99.90
39099;DHT22;24844;52.380;7.018;2023-05-09T03:47:51;15.00;99.90
39099;DHT22;24844;52.380;7.018;2023-05-09T03:50:16;15.00;99.90
39099;DHT22;24844;52.380;7.018;2023-05-09T03:52:42;15.00;99.90
39099;DHT22;24844;52.380;7.018;2023-05-09T03:55:08;15.20;99.90
39099;DHT22;24844;52.380;7.018;2023-05-09T03:57:34;15.10;99.90
39099;DHT22;24844;52.380;7.018;2023-05-09T04:00:00;15.30;99.90
39099;DHT22;24844;52.380;7.018;2023-05-09T04:02:26;15.40;99.90
39099;DHT22;24844;52.380;7.018;2023-05-09T04:04:51;15.30;99.90
39099;DHT22;24844;52.380;7.018;2023-05-09T04:07:18;15.10;99.90
39099;DHT22;24844;52.380;7.018;2023-05-09T04:09:45;15.10;99.90
39099;DHT22;24844;52.380;7.018;2023-05-09T04:12:10;15.10;99.90
39099;DHT22;24844;52.380;7.018;2023-05-09T04:14:37;15.00;99.90
39099;DHT22;24844;52.380;7.018;2023-05-09T04:17:03;15.00;99.90
39099;DHT22;24844;52.380;7.018;2023-05-09T04:19:29;15.00;99.90
39099;DHT22;24844;52.380;7.018;2023-05-09T04:21:55;15.00;99.90
39099;DHT22;24844;52.380;7.018;2023-05-09T04:24:20;15.00;99.90
39099;DHT22;24844;52.380;7.018;2023-05-09T04:26:46;15.10;99.90
39099;DHT22;24844;52.380;7.018;2023-05-09T04:29:12;15.00;99.90
39099;DHT22;24844;52.380;7.018;2023-05-09T04:31:37;15.10;99.90
39099;DHT22;24844;52.380;7.018;2023-05-09T04:34:03;15.00;99.90
39099;DHT22;24844;52.380;7.018;2023-05-09T04:36:28;15.10;99.90
39099;DHT22;24844;52.380;7.018;2023-05-09T04:38:56;15.10;99.90
39099;DHT22;24844;52.380;7.018;2023-05-09T04:41:21;15.20;99.90
39099;DHT22;24844;52.380;7.018;2023-05-09T04:43:48;15.10;99.90
39099;DHT22;24844;52.380;7.018;2023-05-09T04:46:13;15.20;99.90
39099;DHT22;24844;52.380;7.018;2023-05-09T04:48:39;15.20;99.90
39099;DHT22;24844;52.380;7.018;2023-05-09T04:51:04;15.30;99.90
39099;DHT22;24844;52.380;7.018;2023-05-09T04:53:30;15.30;99.90
39099;DHT22;24844;52.380;7.018;2023-05-09T04:55:56;15.40;99.90
39099;DHT22;24844;52.380;7.018;2023-05-09T04:58:21;15.50;99.90
39099;DHT22;24844;52.380;7.018;2023-05-09T05:00:47;15.50;99.90
39099;DHT22;24844;52.380;7.018;2023-05-09T05:03:14;15.50;99.90
39099;DHT22;24844;52.380;7.018;2023-05-09T05:05:39;15.40;99.90
39099;DHT22;24844;52.380;7.018;2023-05-09T05:08:05;15.40;99.90
39099;DHT22;24844;52.380;7.018;2023-05-09T05:10:31;15.40;99.90
39099;DHT22;24844;52.380;7.018;2023-05-09T05:12:57;15.50;99.90
39099;DHT22;24844;52.380;7.018;2023-05-09T05:15:22;15.40;99.90
39099;DHT22;24844;52.380;7.018;2023-05-09T05:17:48;15.40;99.90
39099;DHT22;24844;52.380;7.018;2023-05-09T05:20:13;15.40;99.90
39099;DHT22;24844;52.380;7.018;2023-05-09T05:22:39;15.40;99.90
39099;DHT22;24844;52.380;7.018;2023-05-09T05:25:05;15.40;99.90
39099;DHT22;24844;52.380;7.018;2023-05-09T05:27:31;15.50;99.90
39099;DHT22;24844;52.380;7.018;2023-05-09T05:29:56;15.40;99.90
39099;DHT22;24844;52.380;7.018;2023-05-09T05:32:22;15.50;99.90
39099;DHT22;24844;52.380;7.018;2023-05-09T05:34:47;15.50;99.90
39099;DHT22;24844;52.380;7.018;2023-05-09T05:37:13;15.60;99.90
39099;DHT22;24844;52.380;7.018;2023-05-09T05:39:39;15.70;99.90
39099;DHT22;24844;52.380;7.018;2023-05-09T05:42:04;15.60;99.90
39099;DHT22;24844;52.380;7.018;2023-05-09T05:44:30;15.70;99.90
39099;DHT22;24844;52.380;7.018;2023-05-09T05:46:55;15.60;99.90
39099;DHT22;24844;52.380;7.018;2023-05-09T05:49:21;15.70;99.90
39099;DHT22;24844;52.380;7.018;2023-05-09T05:51:49;15.70;99.90
39099;DHT22;24844;52.380;7.018;2023-05-09T05:54:15;15.60;99.90
39099;DHT22;24844;52.380;7.018;2023-05-09T05:56:40;15.70;99.90
39099;DHT22;24844;52.380;7.018;2023-05-09T05:59:06;15.60;99.90
39099;DHT22;24844;52.380;7.018;2023-05-09T06:01:31;15.60;99.90
39099;DHT22;24844;52.380;7.018;2023-05-09T06:03:57;15.60;99.90
39099;DHT22;24844;52.380;7.018;2023-05-09T06:06:23;15.60;99.90
39099;DHT22;24844;52.380;7.018;2023-05-09T06:08:48;15.60;99.90
39099;DHT22;24844;52.380;7.018;2023-05-09T06:11:15;15.70;99.90
39099;DHT22;24844;52.380;7.018;2023-05-09T06:13:41;15.80;99.90
39099;DHT22;24844;52.380;7.018;2023-05-09T06:16:07;15.70;99.90
39099;DHT22;24844;52.380;7.018;2023-05-09T06:18:36;15.80;99.90
39099;DHT22;24844;52.380;7.018;2023-05-09T06:21:04;15.80;99.90
39099;DHT22;24844;52.380;7.018;2023-05-09T06:23:30;15.70;99.90
39099;DHT22;24844;52.380;7.018;2023-05-09T06:25:56;15.80;99.90
39099;DHT22;24844;52.380;7.018;2023-05-09T06:28:21;15.70;99.90
39099;DHT22;24844;52.380;7.018;2023-05-09T06:30:47;15.70;99.90
39099;DHT22;24844;52.380;7.018;2023-05-09T06:33:12;15.60;99.90
39099;DHT22;24844;52.380;7.018;2023-05-09T06:35:38;15.50;99.90
39099;DHT22;24844;52.380;7.018;2023-05-09T06:38:04;15.40;99.90
39099;DHT22;24844;52.380;7.018;2023-05-09T06:40:29;15.40;99.90
39099;DHT22;24844;52.380;7.018;2023-05-09T06:42:55;15.40;99.90
39099;DHT22;24844;52.380;7.018;2023-05-09T06:45:20;15.50;99.90
39099;DHT22;24844;52.380;7.018;2023-05-09T06:47:46;15.40;99.90
39099;DHT22;24844;52.380;7.018;2023-05-09T06:50:11;15.60;99.90
39099;DHT22;24844;52.380;7.018;2023-05-09T06:52:37;15.70;99.90
39099;DHT22;24844;52.380;7.018;2023-05-09T06:55:03;15.70;99.90
39099;DHT22;24844;52.380;7.018;2023-05-09T06:57:29;15.60;99.90
39099;DHT22;24844;52.380;7.018;2023-05-09T06:59:54;15.60;99.90
39099;DHT22;24844;52.380;7.018;2023-05-09T07:02:20;15.60;99.90
39099;DHT22;24844;52.380;7.018;2023-05-09T07:04:45;15.80;99.90
39099;DHT22;24844;52.380;7.018;2023-05-09T07:07:11;16.10;99.90
39099;DHT22;24844;52.380;7.018;2023-05-09T07:09:37;16.10;99.90
39099;DHT22;24844;52.380;7.018;2023-05-09T07:12:03;16.20;99.90
39099;DHT22;24844;52.380;7.018;2023-05-09T07:14:28;16.40;99.90
39099;DHT22;24844;52.380;7.018;2023-05-09T07:16:54;16.60;99.90
39099;DHT22;24844;52.380;7.018;2023-05-09T07:19:19;16.60;99.90
39099;DHT22;24844;52.380;7.018;2023-05-09T07:21:45;16.70;99.90
39099;DHT22;24844;52.380;7.018;2023-05-09T07:24:11;16.60;99.90
39099;DHT22;24844;52.380;7.018;2023-05-09T07:26:36;16.70;99.90
39099;DHT22;24844;52.380;7.018;2023-05-09T07:29:02;16.50;99.90
39099;DHT22;24844;52.380;7.018;2023-05-09T07:31:28;16.70;99.90
39099;DHT22;24844;52.380;7.018;2023-05-09T07:33:54;16.70;99.90
39099;DHT22;24844;52.380;7.018;2023-05-09T07:36:19;16.70;99.90
39099;DHT22;24844;52.380;7.018;2023-05-09T07:38:45;16.60;99.90
39099;DHT22;24844;52.380;7.018;2023-05-09T07:41:12;16.50;99.90
39099;DHT22;24844;52.380;7.018;2023-05-09T07:43:38;16.40;99.90
39099;DHT22;24844;52.380;7.018;2023-05-09T07:46:03;16.40;99.90
39099;DHT22;24844;52.380;7.018;2023-05-09T07:48:29;16.30;99.90
39099;DHT22;24844;52.380;7.018;2023-05-09T07:50:54;16.50;99.90
39099;DHT22;24844;52.380;7.018;2023-05-09T07:53:20;16.60;99.90
39099;DHT22;24844;52.380;7.018;2023-05-09T07:55:46;16.50;99.90
39099;DHT22;24844;52.380;7.018;2023-05-09T07:58:14;16.60;99.90
39099;DHT22;24844;52.380;7.018;2023-05-09T08:00:41;16.60;99.90
39099;DHT22;24844;52.380;7.018;2023-05-09T08:03:06;16.60;99.90
39099;DHT22;24844;52.380;7.018;2023-05-09T08:05:32;16.60;99.90
39099;DHT22;24844;52.380;7.018;2023-05-09T08:07:57;16.80;99.90
39099;DHT22;24844;52.380;7.018;2023-05-09T08:10:23;16.80;99.90
39099;DHT22;24844;52.380;7.018;2023-05-09T08:12:49;16.90;99.90
39099;DHT22;24844;52.380;7.018;2023-05-09T08:15:15;17.10;99.90
39099;DHT22;24844;52.380;7.018;2023-05-09T08:17:41;17.20;99.90
39099;DHT22;24844;52.380;7.018;2023-05-09T08:20:06;17.30;99.90
39099;DHT22;24844;52.380;7.018;2023-05-09T08:22:33;17.20;99.90
39099;DHT22;24844;52.380;7.018;2023-05-09T08:24:59;17.10;99.90
39099;DHT22;24844;52.380;7.018;2023-05-09T08:27:24;17.10;99.90
39099;DHT22;24844;52.380;7.018;2023-05-09T08:29:50;17.30;99.90
39099;DHT22;24844;52.380;7.018;2023-05-09T08:32:16;16.90;99.90
39099;DHT22;24844;52.380;7.018;2023-05-09T08:34:41;17.00;99.90
39099;DHT22;24844;52.380;7.018;2023-05-09T08:37:07;16.90;99.90
39099;DHT22;24844;52.380;7.018;2023-05-09T08:39:33;17.10;99.90
39099;DHT22;24844;52.380;7.018;2023-05-09T08:42:01;16.90;99.90
39099;DHT22;24844;52.380;7.018;2023-05-09T08:44:28;17.00;99.90
39099;DHT22;24844;52.380;7.018;2023-05-09T08:46:58;16.90;99.90
39099;DHT22;24844;52.380;7.018;2023-05-09T08:49:24;17.00;99.90
39099;DHT22;24844;52.380;7.018;2023-05-09T08:51:51;17.10;99.90
39099;DHT22;24844;52.380;7.018;2023-05-09T08:54:17;17.10;99.90
39099;DHT22;24844;52.380;7.018;2023-05-09T08:56:43;17.30;99.90
39099;DHT22;24844;52.380;7.018;2023-05-09T08:59:09;17.50;99.90
39099;DHT22;24844;52.380;7.018;2023-05-09T09:01:35;17.50;99.90
39099;DHT22;24844;52.380;7.018;2023-05-09T09:04:04;17.60;99.90
39099;DHT22;24844;52.380;7.018;2023-05-09T09:06:33;17.50;99.90
39099;DHT22;24844;52.380;7.018;2023-05-09T09:08:59;17.60;99.90
39099;DHT22;24844;52.380;7.018;2023-05-09T09:11:26;17.60;99.90
39099;DHT22;24844;52.380;7.018;2023-05-09T09:13:53;17.80;99.90
39099;DHT22;24844;52.380;7.018;2023-05-09T09:16:22;17.40;99.90
39099;DHT22;24844;52.380;7.018;2023-05-09T09:18:51;17.50;99.90
39099;DHT22;24844;52.380;7.018;2023-05-09T09:21:19;17.40;99.90
39099;DHT22;24844;52.380;7.018;2023-05-09T09:23:46;17.40;99.90
39099;DHT22;24844;52.380;7.018;2023-05-09T09:26:13;17.40;99.90
39099;DHT22;24844;52.380;7.018;2023-05-09T09:28:39;17.20;99.90
39099;DHT22;24844;52.380;7.018;2023-05-09T09:31:24;17.10;99.90
39099;DHT22;24844;52.380;7.018;2023-05-09T09:33:50;17.30;99.90
39099;DHT22;24844;52.380;7.018;2023-05-09T09:36:25;17.50;99.90
39099;DHT22;24844;52.380;7.018;2023-05-09T09:38:59;17.30;99.90
39099;DHT22;24844;52.380;7.018;2023-05-09T09:41:32;17.50;99.90
39099;DHT22;24844;52.380;7.018;2023-05-09T09:43:58;17.50;99.90
39099;DHT22;24844;52.380;7.018;2023-05-09T09:46:40;17.70;99.90
39099;DHT22;24844;52.380;7.018;2023-05-09T09:49:14;18.10;99.90
39099;DHT22;24844;52.380;7.018;2023-05-09T09:51:40;18.30;99.90
39099;DHT22;24844;52.380;7.018;2023-05-09T09:54:11;18.80;99.90
39099;DHT22;24844;52.380;7.018;2023-05-09T09:56:40;19.00;99.90
39099;DHT22;24844;52.380;7.018;2023-05-09T09:59:17;19.30;99.90
39099;DHT22;24844;52.380;7.018;2023-05-09T10:01:57;19.20;99.90
39099;DHT22;24844;52.380;7.018;2023-05-09T10:04:24;18.90;99.90
39099;DHT22;24844;52.380;7.018;2023-05-09T10:06:54;19.20;99.90
39099;DHT22;24844;52.380;7.018;2023-05-09T10:09:21;19.30;99.90
39099;DHT22;24844;52.380;7.018;2023-05-09T10:11:49;19.30;99.90
39099;DHT22;24844;52.380;7.018;2023-05-09T10:14:18;19.60;99.90
39099;DHT22;24844;52.380;7.018;2023-05-09T10:16:46;19.30;99.90
39099;DHT22;24844;52.380;7.018;2023-05-09T10:19:12;19.70;99.90
39099;DHT22;24844;52.380;7.018;2023-05-09T10:21:40;20.30;99.90
39099;DHT22;24844;52.380;7.018;2023-05-09T10:24:06;21.00;99.90
39099;DHT22;24844;52.380;7.018;2023-05-09T10:26:36;21.00;99.90
39099;DHT22;24844;52.380;7.018;2023-05-09T10:29:09;20.40;99.90
39099;DHT22;24844;52.380;7.018;2023-05-09T10:31:38;19.90;99.90
39099;DHT22;24844;52.380;7.018;2023-05-09T10:34:09;19.70;99.90
39099;DHT22;24844;52.380;7.018;2023-05-09T10:36:34;19.30;99.90
39099;DHT22;24844;52.380;7.018;2023-05-09T10:39:01;19.40;99.90
39099;DHT22;24844;52.380;7.018;2023-05-09T10:41:26;19.70;99.90
39099;DHT22;24844;52.380;7.018;2023-05-09T10:43:55;20.10;99.90
39099;DHT22;24844;52.380;7.018;2023-05-09T10:46:22;20.40;99.90
39099;DHT22;24844;52.380;7.018;2023-05-09T10:48:48;20.90;99.90
39099;DHT22;24844;52.380;7.018;2023-05-09T10:51:15;20.50;99.90
39099;DHT22;24844;52.380;7.018;2023-05-09T10:53:46;20.20;99.90
39099;DHT22;24844;52.380;7.018;2023-05-09T10:56:23;19.80;99.90
39099;DHT22;24844;52.380;7.018;2023-05-09T10:58:49;19.60;99.90
39099;DHT22;24844;52.380;7.018;2023-05-09T11:01:31;19.60;99.90
39099;DHT22;24844;52.380;7.018;2023-05-09T11:03:59;19.80;99.90
39099;DHT22;24844;52.380;7.018;2023-05-09T11:06:47;20.00;99.90
39099;DHT22;24844;52.380;7.018;2023-05-09T11:09:32;20.30;99.90
39099;DHT22;24844;52.380;7.018;2023-05-09T11:12:07;20.50;99.90
39099;DHT22;24844;52.380;7.018;2023-05-09T11:14:40;20.50;99.90
39099;DHT22;24844;52.380;7.018;2023-05-09T11:22:13;19.90;99.90
39099;DHT22;24844;52.380;7.018;2023-05-09T11:24:43;19.80;99.90
39099;DHT22;24844;52.380;7.018;2023-05-09T11:27:19;20.10;99.90
39099;DHT22;24844;52.380;7.018;2023-05-09T11:29:55;20.40;99.90
39099;DHT22;24844;52.380;7.018;2023-05-09T11:32:49;20.70;99.90
39099;DHT22;24844;52.380;7.018;2023-05-09T11:35:13;20.70;99.90
39099;DHT22;24844;52.380;7.018;2023-05-09T11:37:51;20.80;99.90
39099;DHT22;24844;52.380;7.018;2023-05-09T11:40:19;20.90;99.90
39099;DHT22;24844;52.380;7.018;2023-05-09T11:42:50;20.90;99.90
39099;DHT22;24844;52.380;7.018;2023-05-09T11:45:18;20.40;99.90
39099;DHT22;24844;52.380;7.018;2023-05-09T11:47:45;20.00;99.90
39099;DHT22;24844;52.380;7.018;2023-05-09T11:50:12;19.70;99.90
39099;DHT22;24844;52.380;7.018;2023-05-09T11:52:38;19.30;99.90
39099;DHT22;24844;52.380;7.018;2023-05-09T11:55:09;18.50;99.90
39099;DHT22;24844;52.380;7.018;2023-05-09T11:57:48;18.00;99.90
39099;DHT22;24844;52.380;7.018;2023-05-09T12:00:15;17.50;99.90
39099;DHT22;24844;52.380;7.018;2023-05-09T12:02:43;17.00;99.90
39099;DHT22;24844;52.380;7.018;2023-05-09T12:05:10;16.70;99.90
39099;DHT22;24844;52.380;7.018;2023-05-09T12:07:37;17.00;99.90
39099;DHT22;24844;52.380;7.018;2023-05-09T12:10:15;17.00;99.90
39099;DHT22;24844;52.380;7.018;2023-05-09T12:12:45;17.50;99.90
39099;DHT22;24844;52.380;7.018;2023-05-09T12:15:11;17.30;99.90
39099;DHT22;24844;52.380;7.018;2023-05-09T12:17:42;17.50;99.90
39099;DHT22;24844;52.380;7.018;2023-05-09T12:20:08;17.50;99.90
39099;DHT22;24844;52.380;7.018;2023-05-09T12:22:35;17.50;99.90
39099;DHT22;24844;52.380;7.018;2023-05-09T12:25:06;17.70;99.90
39099;DHT22;24844;52.380;7.018;2023-05-09T12:27:36;17.90;99.90
39099;DHT22;24844;52.380;7.018;2023-05-09T12:30:04;18.00;99.90
39099;DHT22;24844;52.380;7.018;2023-05-09T12:32:35;18.00;99.90
39099;DHT22;24844;52.380;7.018;2023-05-09T12:35:02;18.10;99.90
39099;DHT22;24844;52.380;7.018;2023-05-09T12:37:29;18.10;99.90
39099;DHT22;24844;52.380;7.018;2023-05-09T12:40:04;17.70;99.90
39099;DHT22;24844;52.380;7.018;2023-05-09T12:42:34;18.00;99.90
39099;DHT22;24844;52.380;7.018;2023-05-09T12:45:01;18.00;99.90
39099;DHT22;24844;52.380;7.018;2023-05-09T12:47:28;17.90;99.90
39099;DHT22;24844;52.380;7.018;2023-05-09T12:49:58;18.10;99.90
39099;DHT22;24844;52.380;7.018;2023-05-09T12:52:24;18.20;99.90
39099;DHT22;24844;52.380;7.018;2023-05-09T12:54:51;18.20;99.90
39099;DHT22;24844;52.380;7.018;2023-05-09T12:57:24;18.10;99.90
39099;DHT22;24844;52.380;7.018;2023-05-09T12:59:57;18.10;99.90
39099;DHT22;24844;52.380;7.018;2023-05-09T13:02:25;17.70;99.90
39099;DHT22;24844;52.380;7.018;2023-05-09T13:05:11;17.80;99.90
39099;DHT22;24844;52.380;7.018;2023-05-09T13:07:43;18.00;99.90
39099;DHT22;24844;52.380;7.018;2023-05-09T13:10:11;18.10;99.90
39099;DHT22;24844;52.380;7.018;2023-05-09T13:12:38;18.10;99.90
39099;DHT22;24844;52.380;7.018;2023-05-09T13:15:05;18.20;99.90
39099;DHT22;24844;52.380;7.018;2023-05-09T13:17:31;18.40;99.90
39099;DHT22;24844;52.380;7.018;2023-05-09T13:19:56;18.50;99.90
39099;DHT22;24844;52.380;7.018;2023-05-09T13:22:22;18.70;99.90
39099;DHT22;24844;52.380;7.018;2023-05-09T13:24:47;18.60;99.90
39099;DHT22;24844;52.380;7.018;2023-05-09T13:27:13;18.40;99.90
39099;DHT22;24844;52.380;7.018;2023-05-09T13:29:38;18.50;99.90
39099;DHT22;24844;52.380;7.018;2023-05-09T13:32:04;18.50;99.90
39099;DHT22;24844;52.380;7.018;2023-05-09T13:34:30;18.60;99.90
39099;DHT22;24844;52.380;7.018;2023-05-09T13:36:56;18.80;99.90
39099;DHT22;24844;52.380;7.018;2023-05-09T13:39:21;19.10;99.90
39099;DHT22;24844;52.380;7.018;2023-05-09T13:41:47;19.00;99.90
39099;DHT22;24844;52.380;7.018;2023-05-09T13:44:13;19.30;99.90
39099;DHT22;24844;52.380;7.018;2023-05-09T13:46:40;18.90;99.90
39099;DHT22;24844;52.380;7.018;2023-05-09T13:49:05;19.20;99.90
39099;DHT22;24844;52.380;7.018;2023-05-09T13:51:31;19.40;99.90
39099;DHT22;24844;52.380;7.018;2023-05-09T13:53:57;19.20;99.90
39099;DHT22;24844;52.380;7.018;2023-05-09T13:56:22;19.30;99.90
39099;DHT22;24844;52.380;7.018;2023-05-09T13:58:48;19.40;99.90
39099;DHT22;24844;52.380;7.018;2023-05-09T14:01:13;19.50;99.90
39099;DHT22;24844;52.380;7.018;2023-05-09T14:03:40;19.30;99.90
39099;DHT22;24844;52.380;7.018;2023-05-09T14:06:06;19.10;99.90
39099;DHT22;24844;52.380;7.018;2023-05-09T14:08:33;19.10;99.90
39099;DHT22;24844;52.380;7.018;2023-05-09T14:11:01;19.30;99.90
39099;DHT22;24844;52.380;7.018;2023-05-09T14:13:27;19.00;99.90
39099;DHT22;24844;52.380;7.018;2023-05-09T14:15:52;19.00;99.90
39099;DHT22;24844;52.380;7.018;2023-05-09T14:18:18;19.10;99.90
39099;DHT22;24844;52.380;7.018;2023-05-09T14:20:43;19.00;99.90
39099;DHT22;24844;52.380;7.018;2023-05-09T14:23:09;19.10;99.90
39099;DHT22;24844;52.380;7.018;2023-05-09T14:25:35;19.00;99.90
39099;DHT22;24844;52.380;7.018;2023-05-09T14:28:00;19.00;99.90
39099;DHT22;24844;52.380;7.018;2023-05-09T14:30:26;19.20;99.90
39099;DHT22;24844;52.380;7.018;2023-05-09T14:32:51;19.00;99.90
39099;DHT22;24844;52.380;7.018;2023-05-09T14:35:17;19.20;99.90
39099;DHT22;24844;52.380;7.018;2023-05-09T14:37:43;19.30;99.90
39099;DHT22;24844;52.380;7.018;2023-05-09T14:40:09;19.10;99.90
39099;DHT22;24844;52.380;7.018;2023-05-09T14:42:34;18.90;99.90
39099;DHT22;24844;52.380;7.018;2023-05-09T14:45:01;18.90;99.90
39099;DHT22;24844;52.380;7.018;2023-05-09T14:47:26;18.70;99.90
39099;DHT22;24844;52.380;7.018;2023-05-09T14:49:52;18.60;99.90
39099;DHT22;24844;52.380;7.018;2023-05-09T14:52:17;18.70;99.90
39099;DHT22;24844;52.380;7.018;2023-05-09T14:54:43;18.60;99.90
39099;DHT22;24844;52.380;7.018;2023-05-09T14:57:09;18.50;99.90
39099;DHT22;24844;52.380;7.018;2023-05-09T14:59:34;18.70;99.90
39099;DHT22;24844;52.380;7.018;2023-05-09T15:02:00;18.20;99.90
39099;DHT22;24844;52.380;7.018;2023-05-09T15:04:25;18.30;99.90
39099;DHT22;24844;52.380;7.018;2023-05-09T15:06:55;18.00;99.90
39099;DHT22;24844;52.380;7.018;2023-05-09T15:09:20;18.10;99.90
39099;DHT22;24844;52.380;7.018;2023-05-09T15:11:46;17.80;99.90
39099;DHT22;24844;52.380;7.018;2023-05-09T15:14:12;17.70;99.90
39099;DHT22;24844;52.380;7.018;2023-05-09T15:16:38;17.50;99.90
39099;DHT22;24844;52.380;7.018;2023-05-09T15:19:03;17.50;99.90
39099;DHT22;24844;52.380;7.018;2023-05-09T15:21:29;17.50;99.90
39099;DHT22;24844;52.380;7.018;2023-05-09T15:23:54;17.50;99.90
39099;DHT22;24844;52.380;7.018;2023-05-09T15:26:20;17.30;99.90
39099;DHT22;24844;52.380;7.018;2023-05-09T15:28:46;17.50;99.90
39099;DHT22;24844;52.380;7.018;2023-05-09T15:31:12;17.70;99.90
39099;DHT22;24844;52.380;7.018;2023-05-09T15:33:38;17.50;99.90
39099;DHT22;24844;52.380;7.018;2023-05-09T15:36:04;17.60;99.90
39099;DHT22;24844;52.380;7.018;2023-05-09T15:38:31;17.40;99.90
39099;DHT22;24844;52.380;7.018;2023-05-09T15:40:56;17.30;99.90
39099;DHT22;24844;52.380;7.018;2023-05-09T15:43:22;17.50;99.90
39099;DHT22;24844;52.380;7.018;2023-05-09T15:45:48;17.40;99.90